createdAt,value
2019-03-20T00:00:21.727Z,7.25
2019-03-20T00:05:28.801Z,7.20
2019-03-20T00:10:35.731Z,6.86
2019-03-20T00:15:45.744Z,6.88
2019-03-20T00:20:56.439Z,6.88
2019-03-20T00:26:04.255Z,6.83
2019-03-20T00:31:14.817Z,6.81
2019-03-20T00:36:24.671Z,6.75
2019-03-20T00:41:35.719Z,6.53
2019-03-20T00:46:45.479Z,6.50
2019-03-20T00:51:54.153Z,6.33
2019-03-20T00:57:03.867Z,6.41
2019-03-20T01:02:15.703Z,6.79
2019-03-20T01:07:23.692Z,6.86
2019-03-20T01:12:31.210Z,6.57
2019-03-20T01:17:38.507Z,6.45
2019-03-20T01:22:46.473Z,6.22
2019-03-20T01:28:00.115Z,6.28
2019-03-20T01:33:15.289Z,6.30
2019-03-20T01:38:24.659Z,6.07
2019-03-20T01:43:36.389Z,6.30
2019-03-20T01:48:47.294Z,6.20
2019-03-20T01:53:55.621Z,6.09
2019-03-20T01:59:04.479Z,6.20
2019-03-20T02:04:10.291Z,6.34
2019-03-20T02:09:20.288Z,6.27
2019-03-20T02:14:28.921Z,5.87
2019-03-20T02:19:35.453Z,5.93
2019-03-20T02:24:43.649Z,6.42
2019-03-20T02:29:51.090Z,6.55
2019-03-20T02:35:00.735Z,6.57
2019-03-20T02:40:17.494Z,6.53
2019-03-20T02:45:28.401Z,6.46
2019-03-20T02:50:41.819Z,6.36
2019-03-20T02:55:54.390Z,6.25
2019-03-20T03:01:04.597Z,6.31
2019-03-20T03:06:14.679Z,5.86
2019-03-20T03:11:26.339Z,5.79
2019-03-20T03:16:38.682Z,5.51
2019-03-20T03:21:51.130Z,5.77
2019-03-20T03:27:02.805Z,5.57
2019-03-20T03:32:14.849Z,5.64
2019-03-20T03:37:26.528Z,5.24
2019-03-20T03:42:35.290Z,5.55
2019-03-20T03:47:46.063Z,5.64
2019-03-20T03:52:56.227Z,5.66
2019-03-20T03:58:07.916Z,5.75
2019-03-20T04:03:20.233Z,5.90
2019-03-20T04:08:31.893Z,5.45
2019-03-20T04:13:46.004Z,5.62
2019-03-20T04:18:57.410Z,5.43
2019-03-20T04:24:07.875Z,5.39
2019-03-20T04:29:18.514Z,5.45
2019-03-20T04:34:29.543Z,5.45
2019-03-20T04:39:39.961Z,5.62
2019-03-20T04:44:51.381Z,5.61
2019-03-20T04:50:02.194Z,5.64
2019-03-20T04:55:14.272Z,5.57
2019-03-20T05:00:30.111Z,5.48
2019-03-20T05:05:42.288Z,5.16
2019-03-20T05:10:53.569Z,5.06
2019-03-20T05:16:05.099Z,4.25
2019-03-20T05:21:18.917Z,4.66
2019-03-20T05:26:29.281Z,4.74
2019-03-20T05:31:39.997Z,4.62
2019-03-20T05:36:53.081Z,4.74
2019-03-20T05:42:05.609Z,5.20
2019-03-20T05:47:20.463Z,5.22
2019-03-20T05:52:32.135Z,5.46
2019-03-20T05:57:42.658Z,5.41
2019-03-20T06:02:49.758Z,5.80
2019-03-20T06:07:55.821Z,5.94
2019-03-20T06:13:01.911Z,6.20
2019-03-20T06:18:08.597Z,6.39
2019-03-20T06:23:14.340Z,6.44
2019-03-20T06:28:20.585Z,6.57
2019-03-20T06:33:26.558Z,6.81
2019-03-20T06:38:35.396Z,6.73
2019-03-20T06:43:43.045Z,6.89
2019-03-20T06:48:48.669Z,6.90
2019-03-20T06:53:56.013Z,7.16
2019-03-20T06:59:29.793Z,7.42
2019-03-20T07:04:53.303Z,7.65
2019-03-20T07:10:07.881Z,7.67
2019-03-20T07:15:14.433Z,7.94
2019-03-20T07:20:20.129Z,7.84
2019-03-20T07:25:25.762Z,8.19
2019-03-20T07:30:31.491Z,8.37
2019-03-20T07:35:37.691Z,8.23
2019-03-20T07:40:44.565Z,8.58
2019-03-20T07:45:51.760Z,8.42
2019-03-20T07:50:59.371Z,8.22
2019-03-20T07:56:05.500Z,8.44
2019-03-20T08:01:12.937Z,8.66
2019-03-20T08:06:20.434Z,9.04
2019-03-20T08:11:26.427Z,9.19
2019-03-20T08:16:32.657Z,9.65
2019-03-20T08:21:40.727Z,9.70
2019-03-20T08:26:48.382Z,9.98
2019-03-20T08:31:54.154Z,10.39
2019-03-20T08:37:02.537Z,10.29
2019-03-20T08:42:09.778Z,10.57
2019-03-20T08:47:15.485Z,10.61
2019-03-20T08:52:23.571Z,10.50
2019-03-20T08:57:29.672Z,10.68
2019-03-20T09:02:36.366Z,10.80
2019-03-20T09:07:47.186Z,11.39
2019-03-20T09:12:51.464Z,10.97
2019-03-20T09:17:58.045Z,11.26
2019-03-20T09:23:03.991Z,11.97
2019-03-20T09:28:10.766Z,12.31
2019-03-20T09:33:16.641Z,12.30
2019-03-20T09:38:22.840Z,12.14
2019-03-20T09:43:28.824Z,12.67
2019-03-20T09:48:36.818Z,12.51
2019-03-20T09:53:43.962Z,12.27
2019-03-20T09:58:50.414Z,12.62
2019-03-20T10:03:56.302Z,12.90
2019-03-20T10:09:03.714Z,12.47
2019-03-20T10:14:09.748Z,12.15
2019-03-20T10:19:16.794Z,13.52
2019-03-20T10:24:23.614Z,12.96
2019-03-20T10:29:30.490Z,13.18
2019-03-20T10:34:39.700Z,13.94
2019-03-20T10:39:46.687Z,14.21
2019-03-20T10:44:53.873Z,12.55
2019-03-20T10:50:01.258Z,13.09
2019-03-20T10:55:09.051Z,13.79
2019-03-20T11:00:20.859Z,13.55
2019-03-20T11:05:27.048Z,14.31
2019-03-20T11:10:33.735Z,13.37
2019-03-20T11:15:39.488Z,14.42
2019-03-20T11:20:46.793Z,14.14
2019-03-20T11:25:54.794Z,14.50
2019-03-20T11:31:00.957Z,13.56
2019-03-20T11:36:07.477Z,13.73
2019-03-20T11:41:14.886Z,14.57
2019-03-20T11:46:20.739Z,15.21
2019-03-20T11:51:27.541Z,15.07
2019-03-20T11:56:33.494Z,15.37
2019-03-20T12:01:39.650Z,14.76
2019-03-20T12:06:46.063Z,14.62
2019-03-20T12:11:53.374Z,15.23
2019-03-20T12:17:01.891Z,14.94
2019-03-20T12:22:10.134Z,13.53
2019-03-20T12:27:16.106Z,13.86
2019-03-20T12:32:22.875Z,13.84
2019-03-20T12:37:29.284Z,14.03
2019-03-20T12:42:35.983Z,14.38
2019-03-20T12:47:43.298Z,15.61
2019-03-20T12:52:49.701Z,14.64
2019-03-20T12:57:55.302Z,15.00
2019-03-20T13:03:01.592Z,15.51
2019-03-20T13:08:09.785Z,15.42
2019-03-20T13:13:16.766Z,15.81
2019-03-20T13:18:24.787Z,15.33
2019-03-20T13:23:37.491Z,14.61
2019-03-20T13:28:44.069Z,15.40
2019-03-20T13:33:50.290Z,15.47
2019-03-20T13:38:56.723Z,14.88
2019-03-20T13:44:02.859Z,15.45
2019-03-20T13:49:10.342Z,16.25
2019-03-20T13:54:16.920Z,16.51
2019-03-20T13:59:23.035Z,16.58
2019-03-20T14:04:28.613Z,17.18
2019-03-20T14:09:34.713Z,16.63
2019-03-20T14:14:40.921Z,16.77
2019-03-20T14:19:46.955Z,16.20
2019-03-20T14:24:53.023Z,16.63
2019-03-20T14:30:00.728Z,16.43
2019-03-20T14:35:08.449Z,16.54
2019-03-20T14:40:19.786Z,17.13
2019-03-20T14:45:25.934Z,16.75
2019-03-20T14:50:36.369Z,18.10
2019-03-20T14:55:42.141Z,17.09
2019-03-20T15:00:49.038Z,16.46
2019-03-20T15:05:55.175Z,15.87
2019-03-20T15:11:03.829Z,15.33
2019-03-20T15:16:11.945Z,15.35
2019-03-20T15:21:19.811Z,14.38
2019-03-20T15:26:26.245Z,14.97
2019-03-20T15:31:31.834Z,14.95
2019-03-20T15:36:40.065Z,14.25
2019-03-20T15:41:46.483Z,14.32
2019-03-20T15:46:53.292Z,14.84
2019-03-20T15:52:00.898Z,15.02
2019-03-20T15:57:08.099Z,15.01
2019-03-20T16:02:16.200Z,14.58
2019-03-20T16:07:23.363Z,14.71
2019-03-20T16:12:30.556Z,14.41
2019-03-20T16:17:36.896Z,14.70
2019-03-20T16:22:43.995Z,14.91
2019-03-20T16:27:52.340Z,14.97
2019-03-20T16:33:00.200Z,15.03
2019-03-20T16:38:07.253Z,15.09
2019-03-20T16:43:13.599Z,14.78
2019-03-20T16:48:21.132Z,14.59
2019-03-20T16:53:26.848Z,14.31
2019-03-20T16:58:33.584Z,14.82
2019-03-20T17:03:40.724Z,14.55
2019-03-20T17:08:46.905Z,14.33
2019-03-20T17:13:53.048Z,14.10
2019-03-20T17:18:59.268Z,14.48
2019-03-20T17:24:06.096Z,15.09
2019-03-20T17:29:13.644Z,14.46
2019-03-20T17:34:21.755Z,14.73
2019-03-20T17:39:28.352Z,14.40
2019-03-20T17:44:34.718Z,14.82
2019-03-20T17:49:40.597Z,15.02
2019-03-20T17:54:46.798Z,14.60
2019-03-20T17:59:52.390Z,15.27
2019-03-20T18:04:58.514Z,14.29
2019-03-20T18:10:07.614Z,14.35
2019-03-20T18:15:17.644Z,14.15
2019-03-20T18:20:24.513Z,13.93
2019-03-20T18:25:30.183Z,14.22
2019-03-20T18:30:41.669Z,14.67
2019-03-20T18:35:47.747Z,14.26
2019-03-20T18:40:54.688Z,14.01
2019-03-20T18:46:02.166Z,13.53
2019-03-20T18:51:10.038Z,13.24
2019-03-20T18:56:17.664Z,13.11
2019-03-20T19:01:23.990Z,13.00
2019-03-20T19:06:31.698Z,13.61
2019-03-20T19:11:38.476Z,13.59
2019-03-20T19:16:45.172Z,13.62
2019-03-20T19:21:50.902Z,13.73
2019-03-20T19:26:56.485Z,13.53
2019-03-20T19:32:03.601Z,13.68
2019-03-20T19:37:09.422Z,13.54
2019-03-20T19:42:20.009Z,13.61
2019-03-20T19:47:24.036Z,13.44
2019-03-20T19:52:30.739Z,13.55
2019-03-20T19:57:36.477Z,13.77
2019-03-20T20:02:42.658Z,13.48
2019-03-20T20:07:48.409Z,13.54
2019-03-20T20:12:54.990Z,13.64
2019-03-20T20:18:01.068Z,13.12
2019-03-20T20:23:08.259Z,13.09
2019-03-20T20:28:15.504Z,13.06
2019-03-20T20:33:22.219Z,13.22
2019-03-20T20:38:29.389Z,13.15
2019-03-20T20:43:35.232Z,13.10
2019-03-20T20:48:41.801Z,12.93
2019-03-20T20:53:47.455Z,13.30
2019-03-20T20:58:54.175Z,12.77
2019-03-20T21:04:00.228Z,13.32
2019-03-20T21:09:08.083Z,12.84
2019-03-20T21:14:13.965Z,12.90
2019-03-20T21:19:23.623Z,13.14
2019-03-20T21:24:31.973Z,13.45
2019-03-20T21:29:52.570Z,13.04
2019-03-20T21:35:26.685Z,13.03
2019-03-20T21:40:41.909Z,12.93
2019-03-20T21:46:10.161Z,12.88
2019-03-20T21:51:20.681Z,12.66
2019-03-20T21:56:37.817Z,12.17
2019-03-20T22:02:12.235Z,12.97
2019-03-20T22:07:19.844Z,12.49
2019-03-20T22:12:37.489Z,12.32
2019-03-20T22:18:04.709Z,12.63
2019-03-20T22:23:32.433Z,12.03
2019-03-20T22:28:53.251Z,12.08
2019-03-20T22:34:25.718Z,12.12
2019-03-20T22:39:56.849Z,11.92
2019-03-20T22:45:12.251Z,12.33
2019-03-20T22:50:23.822Z,12.02
2019-03-20T22:55:33.222Z,11.80
2019-03-20T23:00:39.135Z,11.96
2019-03-20T23:05:44.948Z,12.36
2019-03-20T23:10:52.242Z,12.55
2019-03-20T23:15:58.135Z,12.56
2019-03-20T23:21:04.054Z,12.31
2019-03-20T23:26:10.064Z,12.05
2019-03-20T23:31:15.850Z,12.04
2019-03-20T23:36:21.709Z,11.80
2019-03-20T23:41:27.920Z,12.27
2019-03-20T23:46:35.891Z,12.23
2019-03-20T23:51:41.817Z,11.98
2019-03-20T23:56:48.108Z,12.08
